Pagrindinis puslapis
METAR-TAF:

METAR-TAF

Oro uostai :

Kerdla, Estija

platuma: 58-59N, ilguma: 022-49E, Aukštis: 5 m

Dabartinis oras

Ataskaita buvo paskelbta 15 valandos ir 50 minutes, ne 07:50 UTC
Vėjas 10 kt iš Pietų/Pietryčių, svyruoja nuo Rytų/Pietryčių ir Pietų
Temperatūra 26°C
Drėgmė 65%
Slėgis 1016 hPa
Matomumas 10 km arba daugiau
nėra debesų žemiau 1500 m ir nėra kamuolinių lietaus debesų

METAR: EEKA 020750Z 15010KT 120V180 CAVOK 26/19 Q1016

Laikas: 02:40 (23:40 UTC)

Prognozė

Ataskaita buvo paskelbta 19 valandos ir 40 minutes, ne 04:00 UTC
Prognozė galioja nuo 02 metu 05 UTC su 02 metu 11 UTC
Vėjas 10 kt iš Pietų/Pietryčių
Matomumas 10 km arba daugiau
nėra debesų žemiau 1500 m ir nėra kamuolinių lietaus debesų
Laikinai
nuo 02 metu 05 UTC su 02 metu 09 UTC
Išsisklaidę debesys ne aukštis 3000 ft, Liūtiniai kamuoliniai debesys.
Tikimybė 40% :
Laikinai
nuo 02 metu 06 UTC su 02 metu 09 UTC
perkūnija, lietus

TAF: EEKA 020400Z 0205/0211 15010KT CAVOK TEMPO 0205/0209 SCT030CB PROB40 TEMPO 0206/0209 TSRA

Orai ataskaitas ir orų prognozės (METAR, TAF).

turimą stotys yra geltonos ir raudonos taškus žemėlapyje.

Perkelti pele per norėdami pamatyti stoties vardą.

Tada spustelėkite, norėdami matyti oro stebėjimo ir prognozės.

Norėdami pakeisti žemėlapį: spustelėkite ant žalios mygtukų su juodo kryžiaus žemyn,; žalią mygtuką su brūkšneliu, jei norite nutolinti; arba žalių rodyklių gretimoms žemėlapius.


METAR-TAF: